Text Box: All records at near 07:00 local time
Kleivo 1 weather for Nov 2009
Month no. 36
Obs.
Da.
Temp. Dew Point Precip. Wind
Speed
Wind gusts Cloud cover Press. Humidity Wind dir. Sunny OPT
01.11.2009 8,4 4,2 25,2 13,0 13,0 1 995,5 75,0 112,5   37,5 %
02.11.2009 9,6 1,7 1,5 31,5 31,5 1 970,1 58,0 135,0   45,0 %
03.11.2009 8,1 6,4 9,9 22,2 22,2 1 974,8 89,0 157,5   42,5 %
04.11.2009 7,2 -2,6 5,6 29,6 29,6 3 969,1 50,0 112,5 1 45,0 %
05.11.2009 2,9 -5,5 0,0 9,3 9,3 10 980,2 54,0 112,5 1 77,5 %
06.11.2009 2,1 -4,4 0,0 9,7 9,7 10 987,0 62,0 135,0 1 75,0 %
07.11.2009 9,1 1,0 0,0 9,3 9,3 2 975,2 57,0 157,5   62,5 %
08.11.2009 8,7 2,5 0,0 13,4 13,4 8 988,7 65,0 135,0 1 75,0 %
09.11.2009 2,8 0,4 0,0 5,6 5,6 10 1005,0 84,0 22,5 1 80,0 %
10.11.2009 -0,4 -2,0 0,0 7,4 7,4 10 997,2 89,0 0,0 1 72,5 %
11.11.2009 1,3 -1,8 0,0 3,7 3,7 10 994,1 80,0 0,0 1 77,5 %
12.11.2009 4,6 -2,9 0,0 9,3 10,1 1 991,1 58,0 67,5   55,0 %
13.11.2009 5,0 -2,1 0,0 38,9 38,9 10 985,3 60,0 67,5 1 60,0 %
14.11.2009 6,4 3,4 0,0 27,8 27,8 2 976,5 81,0 135,0   47,5 %
15.11.2009 8,5 6,8 7,7 4,7 0,0 2 976,5 89,0 135,0   60,0 %
16.11.2009 8,1 2,8 12,9 22,2 22,2 10 986,7 69,0 135,0 1 62,5 %
17.11.2009 9,0 2,3 0,0 20,4 20,4 3 973,5 63,0 135,0 1 57,5 %
18.11.2009 6,4 4,7 9,2 11,1 11,9 1 971,4 89,0 135,0   47,5 %
19.11.2009 6,1 4,4 6,2 21,2 21,2 3 978,9 89,0 112,5 1 50,0 %
20.11.2009 9,5 8,1 29,3 11,9 11,9 1 976,9 91,0 135,0   35,0 %
21.11.2009 6,4 4,7 22,9 5,6 5,6 1 994,5 89,0 292,5   42,5 %
22.11.2009 9,4 7,8 2,6 9,3 10,1 1 975,2 90,0 157,5   60,0 %
23.11.2009 5,8 3,9 15,5 16,7 16,9 1 959,6 88,0 112,5   40,0 %
24.11.2009 5,2 3,8 2,0 0,0 0,0 3 968,7 91,0 0,0 1 67,5 %
25.11.2009 9,3 7,9 5,1 23,7 23,7 10 961,3 91,0 135,0 1 70,0 %
26.11.2009 7,8 5,4 14,8 13,7 13,7 1 959,6 85,0 180,0   47,5 %
27.11.2009 6,3 4,8 19,4 10,1 10,1 1 964,0 90,0 157,5 1 42,5 %
28.11.2009 5,3 3,6 6,1 9,3 9,3 1 969,8 89,0 112,5   52,5 %
29.11.2009 2,6 1,1 1,0 0,0 0,0 1 977,5 90,0 22,5   60,0 %
30.11.2009 -1,0 -4,3 0,0 2,1 2,1 10 976,9 78,0 112,5 1 77,5 %
                       
Avrg/Sum 6,0 2,2 196,9 13,8 13,7 4,3 978,7 77,8 114,0 15 57,5 %